createdAt,value
2018-11-27T00:01:21.440Z,24.23
2018-11-27T00:03:48.083Z,24.23
2018-11-27T00:06:14.734Z,24.25
2018-11-27T00:08:41.432Z,24.26
2018-11-27T00:11:08.107Z,24.23
2018-11-27T00:13:34.739Z,24.24
2018-11-27T00:16:01.374Z,24.23
2018-11-27T00:18:28.017Z,24.16
2018-11-27T00:20:54.656Z,24.15
2018-11-27T00:23:21.297Z,24.17
2018-11-27T00:25:47.934Z,24.20
2018-11-27T00:28:14.578Z,24.22
2018-11-27T00:30:41.239Z,24.15
2018-11-27T00:33:07.893Z,24.18
2018-11-27T00:35:34.529Z,24.13
2018-11-27T00:38:01.165Z,24.10
2018-11-27T00:40:27.823Z,24.08
2018-11-27T00:42:54.495Z,24.11
2018-11-27T00:45:21.134Z,24.13
2018-11-27T00:47:47.776Z,24.13
2018-11-27T00:50:14.484Z,24.10
2018-11-27T00:52:41.116Z,24.14
2018-11-27T00:55:07.785Z,24.11
2018-11-27T00:57:34.427Z,24.14
2018-11-27T01:00:01.081Z,24.11
2018-11-27T01:02:27.718Z,24.10
2018-11-27T01:04:55.867Z,24.12
2018-11-27T01:07:21.070Z,24.03
2018-11-27T01:09:47.961Z,24.05
2018-11-27T01:12:14.576Z,24.10
2018-11-27T01:14:41.213Z,24.06
2018-11-27T01:17:07.866Z,24.08
2018-11-27T01:19:34.516Z,24.07
2018-11-27T01:22:01.159Z,24.08
2018-11-27T01:24:27.806Z,24.11
2018-11-27T01:26:54.534Z,24.08
2018-11-27T01:29:21.195Z,24.06
2018-11-27T01:31:47.842Z,24.04
2018-11-27T01:34:14.489Z,24.06
2018-11-27T01:36:41.141Z,24.00
2018-11-27T01:39:07.810Z,24.03
2018-11-27T01:41:34.448Z,24.06
2018-11-27T01:44:01.099Z,24.04
2018-11-27T01:46:27.751Z,24.02
2018-11-27T01:48:54.404Z,24.03
2018-11-27T01:51:21.049Z,23.99
2018-11-27T01:53:47.699Z,23.98
2018-11-27T01:56:14.340Z,23.96
2018-11-27T01:58:40.997Z,23.98
2018-11-27T02:01:07.699Z,24.00
2018-11-27T02:03:34.293Z,23.98
2018-11-27T02:06:00.935Z,24.01
2018-11-27T02:08:27.622Z,23.99
2018-11-27T02:10:54.272Z,23.98
2018-11-27T02:13:20.968Z,23.97
2018-11-27T02:15:47.618Z,23.98
2018-11-27T02:18:14.257Z,23.98
2018-11-27T02:20:40.912Z,23.93
2018-11-27T02:23:07.637Z,23.95
2018-11-27T02:25:34.340Z,23.95
2018-11-27T02:28:00.976Z,23.98
2018-11-27T02:30:27.615Z,23.98
2018-11-27T02:32:54.261Z,23.95
2018-11-27T02:35:20.915Z,23.96
2018-11-27T02:37:47.565Z,23.94
2018-11-27T02:40:14.213Z,23.93
2018-11-27T02:42:40.865Z,23.93
2018-11-27T02:45:07.570Z,23.94
2018-11-27T02:47:34.210Z,23.98
2018-11-27T02:50:00.862Z,23.94
2018-11-27T02:52:27.505Z,23.94
2018-11-27T02:54:54.148Z,23.91
2018-11-27T02:57:20.799Z,23.94
2018-11-27T02:59:47.487Z,23.92
2018-11-27T03:02:14.133Z,23.90
2018-11-27T03:04:40.828Z,23.92
2018-11-27T03:07:07.456Z,23.91
2018-11-27T03:09:34.119Z,23.95
2018-11-27T03:12:00.762Z,23.94
2018-11-27T03:14:27.423Z,23.88
2018-11-27T03:16:54.123Z,23.90
2018-11-27T03:19:20.775Z,23.87
2018-11-27T03:21:47.409Z,23.88
2018-11-27T03:24:14.055Z,23.87
2018-11-27T03:26:40.699Z,23.84
2018-11-27T03:29:07.433Z,23.88
2018-11-27T03:31:34.074Z,23.92
2018-11-27T03:34:00.726Z,23.85
2018-11-27T03:36:27.376Z,23.80
2018-11-27T03:38:54.037Z,23.84
2018-11-27T03:41:20.688Z,23.86
2018-11-27T03:43:47.334Z,23.84
2018-11-27T03:46:14.019Z,23.84
2018-11-27T03:48:40.663Z,23.80
2018-11-27T03:51:07.307Z,23.84
2018-11-27T03:53:33.987Z,23.86
2018-11-27T03:56:00.616Z,23.85
2018-11-27T03:58:27.312Z,23.79
2018-11-27T04:00:53.963Z,23.81
2018-11-27T04:03:20.606Z,23.84
2018-11-27T04:05:47.258Z,23.75
2018-11-27T04:08:13.897Z,23.82
2018-11-27T04:10:40.540Z,23.34
2018-11-27T04:13:07.178Z,23.22
2018-11-27T04:15:33.833Z,22.93
2018-11-27T04:18:00.489Z,22.77
2018-11-27T04:20:27.134Z,22.94
2018-11-27T04:22:53.772Z,23.19
2018-11-27T04:25:20.429Z,23.26
2018-11-27T04:27:47.067Z,23.10
2018-11-27T04:30:13.809Z,23.25
2018-11-27T04:32:40.407Z,23.04
2018-11-27T04:35:07.101Z,23.19
2018-11-27T04:37:33.738Z,23.30
2018-11-27T04:40:00.382Z,23.54
2018-11-27T04:42:27.029Z,23.61
2018-11-27T04:44:53.715Z,23.64
2018-11-27T04:47:20.365Z,23.68
2018-11-27T04:49:47.011Z,23.71
2018-11-27T04:52:13.710Z,23.74
2018-11-27T04:54:40.353Z,23.71
2018-11-27T04:57:07.017Z,23.72
2018-11-27T04:59:33.647Z,23.75
2018-11-27T05:02:00.546Z,23.77
2018-11-27T05:04:27.193Z,23.71
2018-11-27T05:06:53.845Z,23.87
2018-11-27T05:09:20.501Z,23.86
2018-11-27T05:11:47.150Z,23.81
2018-11-27T05:14:13.790Z,23.83
2018-11-27T05:16:40.440Z,23.86
2018-11-27T05:19:07.105Z,23.82
2018-11-27T05:21:33.741Z,23.81
2018-11-27T05:24:00.442Z,23.77
2018-11-27T05:26:27.079Z,23.59
2018-11-27T05:28:53.790Z,23.70
2018-11-27T05:31:20.454Z,23.73
2018-11-27T05:33:47.113Z,23.74
2018-11-27T05:36:13.804Z,23.77
2018-11-27T05:38:40.449Z,23.77
2018-11-27T05:41:07.087Z,23.78
2018-11-27T05:43:33.738Z,23.81
2018-11-27T05:46:00.391Z,23.83
2018-11-27T05:48:27.045Z,23.82
2018-11-27T05:50:53.690Z,23.98
2018-11-27T05:53:20.333Z,23.98
2018-11-27T05:55:46.983Z,23.96
2018-11-27T05:58:13.636Z,24.06
2018-11-27T06:00:40.330Z,24.14
2018-11-27T06:03:06.974Z,24.09
2018-11-27T06:05:33.635Z,24.11
2018-11-27T06:08:00.327Z,24.16
2018-11-27T06:10:26.975Z,24.17
2018-11-27T06:12:53.632Z,24.12
2018-11-27T06:15:20.271Z,24.20
2018-11-27T06:17:46.922Z,24.21
2018-11-27T06:20:13.555Z,24.16
2018-11-27T06:22:40.262Z,24.24
2018-11-27T06:25:06.907Z,24.29
2018-11-27T06:27:33.560Z,24.20
2018-11-27T06:30:00.221Z,24.23
2018-11-27T06:32:27.019Z,24.27
2018-11-27T06:34:53.668Z,24.33
2018-11-27T06:37:20.373Z,24.44
2018-11-27T06:39:47.044Z,24.29
2018-11-27T06:42:13.718Z,24.00
2018-11-27T06:44:40.429Z,23.77
2018-11-27T06:47:07.099Z,23.87
2018-11-27T06:49:33.793Z,23.92
2018-11-27T06:52:00.446Z,24.09
2018-11-27T06:54:27.200Z,24.20
2018-11-27T06:56:53.851Z,24.20
2018-11-27T06:59:20.515Z,24.25
2018-11-27T07:01:47.172Z,24.21
2018-11-27T07:04:13.814Z,24.18
2018-11-27T07:06:40.465Z,24.24
2018-11-27T07:09:07.116Z,24.22
2018-11-27T07:11:33.811Z,24.25
2018-11-27T07:14:01.688Z,24.36
2018-11-27T07:16:27.156Z,24.43
2018-11-27T07:18:53.882Z,24.47
2018-11-27T07:21:20.586Z,24.30
2018-11-27T07:23:47.238Z,24.38
2018-11-27T07:26:13.964Z,24.49
2018-11-27T07:28:41.276Z,24.46
2018-11-27T07:31:08.023Z,24.46
2018-11-27T07:33:34.668Z,24.49
2018-11-27T07:36:01.318Z,24.50
2018-11-27T07:38:28.075Z,24.49
2018-11-27T07:40:54.751Z,24.60
2018-11-27T07:43:21.928Z,24.62
2018-11-27T07:45:48.599Z,24.55
2018-11-27T07:48:15.279Z,24.54
2018-11-27T07:50:41.931Z,24.58
2018-11-27T07:53:08.636Z,24.61
2018-11-27T07:55:35.300Z,24.69
2018-11-27T07:58:01.981Z,24.84
2018-11-27T08:00:28.773Z,24.85
2018-11-27T08:02:55.420Z,24.68
2018-11-27T08:05:22.061Z,24.74
2018-11-27T08:07:48.711Z,24.80
2018-11-27T08:10:15.344Z,24.75
2018-11-27T08:12:42.118Z,24.78
2018-11-27T08:15:08.824Z,24.92
2018-11-27T08:17:35.565Z,24.71
2018-11-27T08:20:02.261Z,24.65
2018-11-27T08:22:29.205Z,24.63
2018-11-27T08:24:55.862Z,24.71
2018-11-27T08:27:22.531Z,24.71
2018-11-27T08:29:49.223Z,24.81
2018-11-27T08:32:15.865Z,24.87
2018-11-27T08:34:42.575Z,24.73
2018-11-27T08:37:09.234Z,24.82
2018-11-27T08:39:35.902Z,24.70
2018-11-27T08:42:06.073Z,24.64
2018-11-27T08:44:32.710Z,24.85
2018-11-27T08:46:59.372Z,24.75
2018-11-27T08:49:26.015Z,24.76
2018-11-27T08:51:52.719Z,24.90
2018-11-27T08:54:19.359Z,24.75
2018-11-27T08:56:46.025Z,24.81
2018-11-27T08:59:12.819Z,24.93
2018-11-27T09:01:39.494Z,24.76
2018-11-27T09:04:06.796Z,24.85
2018-11-27T09:06:33.444Z,24.89
2018-11-27T09:09:00.132Z,24.92
2018-11-27T09:11:26.779Z,25.05
2018-11-27T09:13:53.497Z,24.83
2018-11-27T09:16:20.201Z,24.79
2018-11-27T09:18:46.855Z,24.85
2018-11-27T09:21:13.542Z,24.88
2018-11-27T09:23:40.202Z,25.14
2018-11-27T09:26:06.980Z,25.09
2018-11-27T09:28:33.622Z,25.23
2018-11-27T09:31:00.303Z,24.98
2018-11-27T09:33:26.942Z,25.03
2018-11-27T09:35:53.590Z,24.99
2018-11-27T09:38:20.249Z,24.97
2018-11-27T09:40:46.930Z,24.93
2018-11-27T09:43:13.572Z,25.00
2018-11-27T09:45:40.226Z,25.07
2018-11-27T09:48:06.885Z,25.05
2018-11-27T09:50:33.553Z,24.94
2018-11-27T09:53:00.247Z,25.02
2018-11-27T09:55:26.914Z,25.01
2018-11-27T09:57:58.822Z,24.90
2018-11-27T10:00:20.279Z,25.04
2018-11-27T10:02:46.932Z,24.95
2018-11-27T10:05:13.588Z,24.84
2018-11-27T10:07:40.369Z,24.95
2018-11-27T10:10:07.010Z,24.91
2018-11-27T10:12:33.718Z,24.86
2018-11-27T10:15:00.370Z,24.87
2018-11-27T10:17:27.033Z,24.96
2018-11-27T10:19:53.680Z,24.89
2018-11-27T10:22:20.345Z,24.97
2018-11-27T10:24:47.041Z,24.87
2018-11-27T10:27:13.763Z,24.93
2018-11-27T10:29:40.449Z,24.97
2018-11-27T10:32:07.062Z,25.01
2018-11-27T10:34:33.787Z,25.31
2018-11-27T10:37:00.478Z,25.12
2018-11-27T10:39:27.175Z,25.15
2018-11-27T10:41:54.050Z,25.12
2018-11-27T10:44:20.733Z,24.99
2018-11-27T10:46:47.504Z,24.93
2018-11-27T10:49:14.197Z,24.96
2018-11-27T10:51:40.916Z,25.03
2018-11-27T10:54:07.694Z,24.95
2018-11-27T10:56:34.377Z,24.91
2018-11-27T10:59:01.110Z,25.14
2018-11-27T11:01:27.916Z,25.10
2018-11-27T11:03:56.910Z,25.10
2018-11-27T11:06:24.580Z,25.09
2018-11-27T11:08:51.270Z,25.16
2018-11-27T11:11:18.013Z,25.26
2018-11-27T11:13:44.669Z,25.11
2018-11-27T11:16:11.306Z,25.16
2018-11-27T11:18:37.966Z,25.11
2018-11-27T11:21:04.670Z,25.14
2018-11-27T11:23:31.401Z,25.27
2018-11-27T11:25:58.492Z,25.12
2018-11-27T11:28:25.135Z,25.11
2018-11-27T11:30:51.851Z,25.14
2018-11-27T11:33:18.556Z,25.20
2018-11-27T11:35:45.263Z,25.39
2018-11-27T11:38:11.935Z,25.45
2018-11-27T11:40:38.590Z,25.44
2018-11-27T11:43:05.332Z,25.39
2018-11-27T11:45:31.981Z,25.28
2018-11-27T11:47:58.623Z,25.30
2018-11-27T11:50:25.295Z,25.41
2018-11-27T11:52:51.938Z,25.40
2018-11-27T11:55:18.637Z,25.32
2018-11-27T11:57:45.379Z,25.30
2018-11-27T12:00:12.033Z,25.42
2018-11-27T12:02:38.671Z,25.37
2018-11-27T12:05:05.410Z,25.44
2018-11-27T12:07:32.172Z,25.56
2018-11-27T12:09:58.879Z,25.47
2018-11-27T12:12:25.517Z,25.30
2018-11-27T12:14:52.199Z,25.49
2018-11-27T12:17:18.837Z,25.35
2018-11-27T12:19:45.576Z,25.34
2018-11-27T12:22:12.227Z,25.37
2018-11-27T12:24:38.953Z,25.36
2018-11-27T12:27:05.651Z,25.40
2018-11-27T12:29:32.504Z,25.53
2018-11-27T12:31:59.153Z,25.37
2018-11-27T12:34:25.879Z,25.45
2018-11-27T12:36:53.443Z,25.42
2018-11-27T12:39:20.117Z,25.43
2018-11-27T12:41:46.814Z,25.43
2018-11-27T12:44:13.629Z,25.43
2018-11-27T12:46:40.115Z,25.37
2018-11-27T12:49:06.765Z,25.58
2018-11-27T12:51:33.483Z,25.46
2018-11-27T12:54:00.131Z,25.56
2018-11-27T12:56:26.931Z,25.56
2018-11-27T12:58:53.669Z,25.71
2018-11-27T13:01:20.324Z,25.31
2018-11-27T13:03:46.972Z,25.28
2018-11-27T13:06:13.684Z,25.39
2018-11-27T13:08:40.388Z,25.35
2018-11-27T13:11:11.467Z,25.36
2018-11-27T13:13:33.823Z,25.33
2018-11-27T13:16:00.523Z,25.39
2018-11-27T13:18:27.193Z,25.44
2018-11-27T13:20:53.899Z,25.44
2018-11-27T13:23:20.536Z,25.39
2018-11-27T13:25:47.251Z,25.45
2018-11-27T13:28:14.037Z,25.60
2018-11-27T13:30:40.675Z,25.59
2018-11-27T13:33:07.370Z,25.64
2018-11-27T13:35:34.018Z,25.57
2018-11-27T13:38:00.688Z,25.52
2018-11-27T13:40:27.329Z,25.30
2018-11-27T13:42:53.979Z,25.44
2018-11-27T13:45:20.715Z,25.56
2018-11-27T13:47:47.373Z,25.46
2018-11-27T13:50:14.016Z,25.44
2018-11-27T13:52:40.661Z,25.43
2018-11-27T13:55:07.310Z,25.47
2018-11-27T13:57:33.963Z,25.36
2018-11-27T14:00:00.714Z,25.38
2018-11-27T14:02:29.599Z,25.39
2018-11-27T14:04:54.080Z,25.44
2018-11-27T14:07:20.716Z,25.42
2018-11-27T14:09:47.374Z,25.39
2018-11-27T14:12:14.031Z,25.42
2018-11-27T14:14:40.672Z,25.42
2018-11-27T14:17:07.303Z,25.41
2018-11-27T14:19:33.965Z,25.49
2018-11-27T14:22:00.619Z,25.46
2018-11-27T14:24:27.303Z,25.31
2018-11-27T14:26:54.052Z,25.42
2018-11-27T14:29:20.706Z,25.35
2018-11-27T14:31:47.343Z,25.36
2018-11-27T14:34:14.019Z,25.43
2018-11-27T14:36:41.082Z,25.43
2018-11-27T14:39:07.768Z,25.47
2018-11-27T14:41:34.466Z,25.37
2018-11-27T14:44:01.129Z,25.10
2018-11-27T14:46:27.835Z,25.31
2018-11-27T14:48:54.484Z,25.14
2018-11-27T14:51:21.307Z,25.09
2018-11-27T14:53:47.950Z,25.18
2018-11-27T14:56:14.639Z,25.25
2018-11-27T14:58:41.350Z,25.22
2018-11-27T15:01:08.396Z,25.30
2018-11-27T15:03:35.050Z,25.35
2018-11-27T15:06:01.701Z,25.43
2018-11-27T15:08:28.401Z,25.32
2018-11-27T15:10:55.066Z,25.38
2018-11-27T15:13:21.706Z,25.38
2018-11-27T15:15:48.413Z,25.38
2018-11-27T15:18:15.057Z,25.35
2018-11-27T15:20:41.750Z,25.39
2018-11-27T15:23:08.563Z,25.25
2018-11-27T15:25:35.228Z,25.27
2018-11-27T15:28:01.924Z,25.30
2018-11-27T15:30:28.582Z,25.31
2018-11-27T15:32:55.242Z,25.33
2018-11-27T15:35:21.887Z,25.30
2018-11-27T15:37:48.717Z,25.32
2018-11-27T15:40:15.373Z,25.36
2018-11-27T15:42:42.012Z,25.35
2018-11-27T15:45:08.723Z,25.32
2018-11-27T15:47:35.361Z,25.29
2018-11-27T15:50:02.090Z,25.26
2018-11-27T15:52:28.737Z,25.27
2018-11-27T15:54:55.424Z,25.25
2018-11-27T15:57:22.088Z,25.34
2018-11-27T15:59:48.770Z,25.25
2018-11-27T16:02:15.416Z,25.25
2018-11-27T16:04:42.059Z,25.20
2018-11-27T16:07:08.728Z,25.23
2018-11-27T16:09:35.422Z,25.19
2018-11-27T16:12:02.142Z,25.23
2018-11-27T16:14:28.784Z,25.12
2018-11-27T16:16:55.431Z,25.03
2018-11-27T16:19:22.090Z,25.13
2018-11-27T16:21:48.739Z,25.17
2018-11-27T16:24:15.391Z,25.15
2018-11-27T16:26:42.164Z,25.18
2018-11-27T16:29:08.827Z,25.10
2018-11-27T16:31:35.470Z,25.09
2018-11-27T16:34:02.158Z,25.11
2018-11-27T16:36:28.795Z,25.13
2018-11-27T16:38:55.449Z,25.03
2018-11-27T16:41:22.097Z,25.08
2018-11-27T16:43:48.797Z,24.95
2018-11-27T16:46:15.444Z,24.99
2018-11-27T16:48:42.101Z,25.04
2018-11-27T16:51:08.845Z,25.01
2018-11-27T16:53:35.551Z,24.97
2018-11-27T16:56:03.130Z,25.04
2018-11-27T16:58:28.839Z,25.04
2018-11-27T17:00:55.536Z,25.04
2018-11-27T17:03:22.190Z,25.06
2018-11-27T17:05:48.946Z,24.99
2018-11-27T17:08:15.585Z,25.01
2018-11-27T17:10:42.279Z,25.05
2018-11-27T17:13:08.954Z,24.93
2018-11-27T17:15:35.568Z,25.00
2018-11-27T17:18:02.271Z,25.01
2018-11-27T17:20:28.913Z,24.97
2018-11-27T17:22:55.553Z,24.97
2018-11-27T17:25:22.205Z,24.91
2018-11-27T17:27:48.852Z,24.96
2018-11-27T17:30:15.489Z,24.98
2018-11-27T17:32:42.150Z,25.02
2018-11-27T17:35:08.799Z,24.95
2018-11-27T17:37:35.539Z,24.95
2018-11-27T17:40:02.180Z,24.95
2018-11-27T17:42:28.883Z,24.88
2018-11-27T17:44:55.523Z,24.93
2018-11-27T17:47:22.169Z,24.92
2018-11-27T17:49:48.836Z,24.92
2018-11-27T17:52:15.719Z,24.91
2018-11-27T17:54:42.346Z,24.91
2018-11-27T17:57:08.990Z,24.91
2018-11-27T17:59:35.630Z,24.93
2018-11-27T18:02:02.284Z,24.95
2018-11-27T18:04:28.929Z,24.94
2018-11-27T18:06:55.569Z,24.92
2018-11-27T18:09:22.226Z,24.86
2018-11-27T18:11:48.865Z,24.92
2018-11-27T18:14:15.546Z,24.86
2018-11-27T18:16:42.190Z,24.91
2018-11-27T18:19:08.893Z,24.89
2018-11-27T18:21:35.602Z,24.91
2018-11-27T18:24:02.246Z,24.79
2018-11-27T18:26:28.943Z,24.78
2018-11-27T18:28:55.677Z,24.78
2018-11-27T18:31:22.299Z,24.78
2018-11-27T18:33:48.937Z,24.84
2018-11-27T18:36:15.625Z,24.80
2018-11-27T18:38:42.331Z,24.78
2018-11-27T18:41:08.978Z,24.74
2018-11-27T18:43:35.626Z,24.78
2018-11-27T18:46:02.286Z,24.69
2018-11-27T18:48:28.941Z,24.67
2018-11-27T18:50:55.670Z,24.65
2018-11-27T18:53:22.332Z,24.64
2018-11-27T18:55:48.975Z,24.62
2018-11-27T18:58:18.480Z,24.57
2018-11-27T19:00:45.171Z,24.57
2018-11-27T19:03:11.823Z,24.56
2018-11-27T19:05:38.469Z,24.50
2018-11-27T19:08:05.165Z,24.50
2018-11-27T19:10:31.867Z,24.48
2018-11-27T19:12:58.569Z,24.44
2018-11-27T19:15:25.210Z,24.47
2018-11-27T19:17:51.850Z,24.42
2018-11-27T19:20:18.511Z,24.43
2018-11-27T19:22:45.201Z,24.42
2018-11-27T19:25:11.842Z,24.43
2018-11-27T19:27:38.591Z,24.38
2018-11-27T19:30:05.229Z,24.43
2018-11-27T19:32:31.885Z,24.28
2018-11-27T19:34:58.529Z,24.37
2018-11-27T19:37:25.250Z,24.34
2018-11-27T19:39:51.874Z,24.35
2018-11-27T19:42:18.508Z,24.36
2018-11-27T19:44:45.200Z,24.37
2018-11-27T19:47:11.905Z,24.37
2018-11-27T19:49:38.580Z,24.43
2018-11-27T19:52:05.221Z,24.42
2018-11-27T19:54:31.913Z,24.44
2018-11-27T19:56:58.556Z,24.43
2018-11-27T19:59:25.197Z,24.41
2018-11-27T20:01:51.886Z,24.44
2018-11-27T20:04:19.321Z,24.44
2018-11-27T20:06:45.176Z,24.41
2018-11-27T20:09:11.822Z,24.41
2018-11-27T20:11:38.465Z,24.43
2018-11-27T20:14:05.101Z,24.39
2018-11-27T20:16:31.757Z,24.49
2018-11-27T20:18:58.397Z,24.50
2018-11-27T20:21:25.094Z,24.41
2018-11-27T20:23:51.794Z,24.41
2018-11-27T20:26:18.430Z,24.44
2018-11-27T20:28:45.086Z,24.44
2018-11-27T20:31:11.855Z,24.45
2018-11-27T20:33:38.495Z,24.45
2018-11-27T20:36:05.138Z,24.46
2018-11-27T20:38:31.799Z,24.45
2018-11-27T20:40:58.448Z,24.48
2018-11-27T20:43:25.097Z,24.44
2018-11-27T20:45:51.746Z,24.46
2018-11-27T20:48:18.522Z,24.46
2018-11-27T20:50:45.162Z,24.45
2018-11-27T20:53:11.839Z,24.44
2018-11-27T20:55:38.526Z,24.46
2018-11-27T20:58:05.185Z,24.46
2018-11-27T21:00:31.835Z,24.47
2018-11-27T21:02:58.479Z,24.49
2018-11-27T21:05:25.178Z,24.46
2018-11-27T21:07:51.805Z,24.42
2018-11-27T21:10:18.468Z,24.42
2018-11-27T21:12:45.118Z,24.44
2018-11-27T21:15:11.843Z,24.45
2018-11-27T21:17:38.479Z,24.46
2018-11-27T21:20:05.120Z,24.45
2018-11-27T21:22:31.785Z,24.37
2018-11-27T21:24:58.417Z,24.48
2018-11-27T21:27:25.066Z,24.48
2018-11-27T21:29:51.721Z,24.44
2018-11-27T21:32:18.379Z,24.44
2018-11-27T21:34:45.014Z,24.42
2018-11-27T21:37:11.664Z,24.44
2018-11-27T21:39:38.318Z,24.46
2018-11-27T21:42:05.059Z,24.48
2018-11-27T21:44:31.710Z,24.47
2018-11-27T21:46:58.349Z,24.46
2018-11-27T21:49:25.011Z,24.47
2018-11-27T21:51:51.916Z,24.47
2018-11-27T21:54:18.556Z,24.45
2018-11-27T21:56:45.293Z,24.47
2018-11-27T21:59:11.990Z,24.46
2018-11-27T22:01:38.639Z,24.45
2018-11-27T22:04:05.339Z,24.46
2018-11-27T22:06:32.029Z,24.48
2018-11-27T22:08:58.725Z,24.42
2018-11-27T22:11:25.378Z,24.40
2018-11-27T22:13:52.032Z,24.46
2018-11-27T22:16:18.669Z,24.46
2018-11-27T22:18:45.369Z,24.47
2018-11-27T22:21:12.080Z,24.44
2018-11-27T22:23:38.719Z,24.43
2018-11-27T22:26:05.357Z,24.43
2018-11-27T22:28:32.023Z,24.44
2018-11-27T22:30:58.730Z,24.43
2018-11-27T22:33:25.368Z,24.45
2018-11-27T22:35:52.024Z,24.42
2018-11-27T22:38:18.720Z,24.43
2018-11-27T22:40:45.793Z,24.40
2018-11-27T22:43:12.438Z,24.30
2018-11-27T22:45:39.090Z,24.14
2018-11-27T22:48:05.752Z,24.00
2018-11-27T22:50:32.554Z,23.83
2018-11-27T22:52:59.191Z,23.90
2018-11-27T22:55:25.829Z,24.05
2018-11-27T22:57:52.483Z,24.14
2018-11-27T23:00:19.132Z,24.17
2018-11-27T23:02:45.771Z,24.16
2018-11-27T23:05:12.408Z,24.22
2018-11-27T23:07:39.112Z,24.20
2018-11-27T23:10:05.751Z,24.20
2018-11-27T23:12:32.454Z,24.21
2018-11-27T23:14:59.097Z,24.19
2018-11-27T23:17:25.745Z,24.23
2018-11-27T23:19:52.442Z,24.23
2018-11-27T23:22:19.095Z,24.24
2018-11-27T23:24:45.786Z,24.23
2018-11-27T23:27:12.422Z,24.26
2018-11-27T23:29:39.057Z,24.26
2018-11-27T23:32:05.713Z,24.24
2018-11-27T23:34:32.350Z,24.19
2018-11-27T23:36:59.100Z,24.18
2018-11-27T23:39:25.737Z,24.26
2018-11-27T23:41:52.433Z,24.21
2018-11-27T23:44:19.092Z,24.18
2018-11-27T23:46:45.783Z,24.21
2018-11-27T23:49:12.461Z,24.22
2018-11-27T23:51:39.098Z,24.24
2018-11-27T23:54:05.750Z,24.22
2018-11-27T23:56:32.386Z,24.23
2018-11-27T23:58:59.072Z,24.15
